sensor_id;sensor_type;location;lat;lon;timestamp;pressure;altitude;pressure_sealevel;temperature;humidity
13604;BME280;24578;48.264;11.436;2023-05-19T00:00:19;96618.97;;;8.17;100.00
13604;BME280;24578;48.264;11.436;2023-05-19T00:03:49;96612.56;;;8.08;100.00
13604;BME280;24578;48.264;11.436;2023-05-19T00:07:16;96612.16;;;8.00;100.00
13604;BME280;24578;48.264;11.436;2023-05-19T00:10:39;96603.25;;;8.06;100.00
13604;BME280;24578;48.264;11.436;2023-05-19T00:14:02;96603.78;;;7.97;100.00
13604;BME280;24578;48.264;11.436;2023-05-19T00:17:25;96600.97;;;7.85;100.00
13604;BME280;24578;48.264;11.436;2023-05-19T00:20:46;96599.63;;;7.78;100.00
13604;BME280;24578;48.264;11.436;2023-05-19T00:24:08;96596.31;;;7.76;100.00
13604;BME280;24578;48.264;11.436;2023-05-19T00:27:30;96586.16;;;7.73;100.00
13604;BME280;24578;48.264;11.436;2023-05-19T00:30:52;96583.50;;;7.58;100.00
13604;BME280;24578;48.264;11.436;2023-05-19T00:34:14;96591.50;;;7.54;100.00
13604;BME280;24578;48.264;11.436;2023-05-19T00:37:35;96588.53;;;7.45;100.00
13604;BME280;24578;48.264;11.436;2023-05-19T00:40:58;96591.16;;;7.44;100.00
13604;BME280;24578;48.264;11.436;2023-05-19T00:44:20;96587.69;;;7.45;100.00
13604;BME280;24578;48.264;11.436;2023-05-19T00:47:41;96579.19;;;7.43;100.00
13604;BME280;24578;48.264;11.436;2023-05-19T00:51:04;96581.88;;;7.41;100.00
13604;BME280;24578;48.264;11.436;2023-05-19T00:54:28;96576.56;;;7.44;100.00
13604;BME280;24578;48.264;11.436;2023-05-19T00:57:49;96569.00;;;7.41;100.00
13604;BME280;24578;48.264;11.436;2023-05-19T01:01:11;96568.13;;;7.41;100.00
13604;BME280;24578;48.264;11.436;2023-05-19T01:04:36;96564.91;;;7.37;100.00
13604;BME280;24578;48.264;11.436;2023-05-19T01:07:59;96563.50;;;7.31;100.00
13604;BME280;24578;48.264;11.436;2023-05-19T01:11:21;96553.44;;;7.27;100.00
13604;BME280;24578;48.264;11.436;2023-05-19T01:14:43;96554.63;;;7.21;100.00
13604;BME280;24578;48.264;11.436;2023-05-19T01:18:14;96545.38;;;7.17;100.00
13604;BME280;24578;48.264;11.436;2023-05-19T01:33:12;96560.59;;;7.06;100.00
13604;BME280;24578;48.264;11.436;2023-05-19T01:36:37;96572.03;;;7.00;100.00
13604;BME280;24578;48.264;11.436;2023-05-19T01:39:59;96575.53;;;6.99;100.00
13604;BME280;24578;48.264;11.436;2023-05-19T01:43:25;96566.78;;;7.01;100.00
13604;BME280;24578;48.264;11.436;2023-05-19T01:46:48;96570.13;;;7.04;100.00
13604;BME280;24578;48.264;11.436;2023-05-19T01:50:11;96571.03;;;7.03;100.00
13604;BME280;24578;48.264;11.436;2023-05-19T01:53:33;96568.31;;;7.06;100.00
13604;BME280;24578;48.264;11.436;2023-05-19T01:57:42;96564.72;;;7.08;100.00
13604;BME280;24578;48.264;11.436;2023-05-19T02:04:50;96559.66;;;7.23;100.00
13604;BME280;24578;48.264;11.436;2023-05-19T02:15:52;96556.19;;;7.40;100.00
13604;BME280;24578;48.264;11.436;2023-05-19T02:19:29;96554.13;;;7.46;100.00
13604;BME280;24578;48.264;11.436;2023-05-19T02:22:52;96550.38;;;7.52;100.00
13604;BME280;24578;48.264;11.436;2023-05-19T02:26:14;96549.78;;;7.47;100.00
13604;BME280;24578;48.264;11.436;2023-05-19T02:29:35;96547.81;;;7.52;100.00
13604;BME280;24578;48.264;11.436;2023-05-19T02:32:57;96541.25;;;7.46;100.00
13604;BME280;24578;48.264;11.436;2023-05-19T02:36:19;96537.88;;;7.60;100.00
13604;BME280;24578;48.264;11.436;2023-05-19T02:39:42;96537.81;;;7.62;100.00
13604;BME280;24578;48.264;11.436;2023-05-19T02:43:04;96537.81;;;7.62;100.00
13604;BME280;24578;48.264;11.436;2023-05-19T02:46:26;96531.28;;;7.71;100.00
13604;BME280;24578;48.264;11.436;2023-05-19T02:49:48;96537.41;;;7.70;100.00
13604;BME280;24578;48.264;11.436;2023-05-19T02:53:10;96535.94;;;7.80;100.00
13604;BME280;24578;48.264;11.436;2023-05-19T02:56:31;96529.03;;;7.81;100.00
13604;BME280;24578;48.264;11.436;2023-05-19T02:59:53;96535.09;;;7.80;100.00
13604;BME280;24578;48.264;11.436;2023-05-19T03:03:15;96531.72;;;7.79;100.00
13604;BME280;24578;48.264;11.436;2023-05-19T03:06:37;96535.59;;;7.86;100.00
13604;BME280;24578;48.264;11.436;2023-05-19T03:09:59;96527.78;;;7.88;100.00
13604;BME280;24578;48.264;11.436;2023-05-19T03:13:24;96533.84;;;7.87;100.00
13604;BME280;24578;48.264;11.436;2023-05-19T03:16:45;96520.97;;;7.87;100.00
13604;BME280;24578;48.264;11.436;2023-05-19T03:20:09;96523.66;;;7.85;100.00
13604;BME280;24578;48.264;11.436;2023-05-19T03:23:31;96518.50;;;7.85;100.00
13604;BME280;24578;48.264;11.436;2023-05-19T03:26:53;96525.28;;;7.86;100.00
13604;BME280;24578;48.264;11.436;2023-05-19T03:30:14;96525.28;;;7.86;100.00
13604;BME280;24578;48.264;11.436;2023-05-19T03:33:36;96520.88;;;7.88;100.00
13604;BME280;24578;48.264;11.436;2023-05-19T03:36:58;96521.44;;;7.93;100.00
13604;BME280;24578;48.264;11.436;2023-05-19T03:40:20;96515.38;;;7.95;100.00
13604;BME280;24578;48.264;11.436;2023-05-19T03:43:41;96511.31;;;7.90;100.00
13604;BME280;24578;48.264;11.436;2023-05-19T03:47:03;96511.34;;;8.05;100.00
13604;BME280;24578;48.264;11.436;2023-05-19T03:50:25;96509.16;;;8.13;100.00
13604;BME280;24578;48.264;11.436;2023-05-19T03:53:49;96511.81;;;8.12;100.00
13604;BME280;24578;48.264;11.436;2023-05-19T03:57:12;96514.41;;;8.12;100.00
13604;BME280;24578;48.264;11.436;2023-05-19T04:00:34;96517.81;;;8.12;100.00
13604;BME280;24578;48.264;11.436;2023-05-19T04:03:56;96523.56;;;8.17;100.00
13604;BME280;24578;48.264;11.436;2023-05-19T04:07:17;96516.34;;;8.22;100.00
13604;BME280;24578;48.264;11.436;2023-05-19T04:10:39;96519.81;;;8.37;100.00
13604;BME280;24578;48.264;11.436;2023-05-19T04:14:01;96513.91;;;8.35;100.00
13604;BME280;24578;48.264;11.436;2023-05-19T04:17:22;96515.84;;;8.46;100.00
13604;BME280;24578;48.264;11.436;2023-05-19T04:20:46;96514.59;;;8.53;100.00
13604;BME280;24578;48.264;11.436;2023-05-19T04:24:08;96516.25;;;8.55;100.00
13604;BME280;24578;48.264;11.436;2023-05-19T04:27:30;96519.22;;;8.63;100.00
13604;BME280;24578;48.264;11.436;2023-05-19T04:30:52;96520.19;;;8.75;100.00
13604;BME280;24578;48.264;11.436;2023-05-19T04:34:14;96510.34;;;8.81;100.00
13604;BME280;24578;48.264;11.436;2023-05-19T04:37:36;96512.66;;;8.86;100.00
13604;BME280;24578;48.264;11.436;2023-05-19T04:40:58;96507.03;;;8.94;100.00
13604;BME280;24578;48.264;11.436;2023-05-19T04:44:21;96504.78;;;9.02;100.00
13604;BME280;24578;48.264;11.436;2023-05-19T04:47:43;96510.78;;;9.17;100.00
13604;BME280;24578;48.264;11.436;2023-05-19T04:51:07;96505.75;;;9.28;100.00
13604;BME280;24578;48.264;11.436;2023-05-19T04:54:29;96514.69;;;9.37;100.00
13604;BME280;24578;48.264;11.436;2023-05-19T04:57:50;96518.19;;;9.36;100.00
13604;BME280;24578;48.264;11.436;2023-05-19T05:01:12;96510.59;;;9.48;100.00
13604;BME280;24578;48.264;11.436;2023-05-19T05:04:34;96511.50;;;9.47;100.00
13604;BME280;24578;48.264;11.436;2023-05-19T05:07:56;96508.13;;;9.59;100.00
13604;BME280;24578;48.264;11.436;2023-05-19T05:11:19;96503.25;;;9.82;100.00
13604;BME280;24578;48.264;11.436;2023-05-19T05:14:41;96497.06;;;9.97;100.00
13604;BME280;24578;48.264;11.436;2023-05-19T05:18:03;96494.28;;;10.13;100.00
13604;BME280;24578;48.264;11.436;2023-05-19T05:21:26;96484.84;;;10.65;100.00
13604;BME280;24578;48.264;11.436;2023-05-19T05:24:48;96484.50;;;11.20;100.00
13604;BME280;24578;48.264;11.436;2023-05-19T05:28:10;96481.91;;;11.69;100.00
13604;BME280;24578;48.264;11.436;2023-05-19T05:31:32;96480.59;;;12.69;100.00
13604;BME280;24578;48.264;11.436;2023-05-19T05:34:54;96483.31;;;12.67;100.00
13604;BME280;24578;48.264;11.436;2023-05-19T05:38:15;96489.59;;;12.76;100.00
13604;BME280;24578;48.264;11.436;2023-05-19T05:41:37;96492.53;;;12.60;100.00
13604;BME280;24578;48.264;11.436;2023-05-19T05:44:59;96492.88;;;12.44;100.00
13604;BME280;24578;48.264;11.436;2023-05-19T05:48:21;96493.56;;;12.46;100.00
13604;BME280;24578;48.264;11.436;2023-05-19T05:51:43;96496.91;;;12.59;100.00
13604;BME280;24578;48.264;11.436;2023-05-19T05:55:06;96497.47;;;12.74;100.00
13604;BME280;24578;48.264;11.436;2023-05-19T05:58:27;96497.00;;;12.92;100.00
13604;BME280;24578;48.264;11.436;2023-05-19T06:01:49;96493.78;;;13.22;100.00
13604;BME280;24578;48.264;11.436;2023-05-19T06:05:11;96495.25;;;13.59;100.00
13604;BME280;24578;48.264;11.436;2023-05-19T06:08:34;96496.44;;;13.88;100.00
13604;BME280;24578;48.264;11.436;2023-05-19T06:11:57;96492.97;;;13.98;100.00
13604;BME280;24578;48.264;11.436;2023-05-19T06:15:21;96488.28;;;13.92;100.00
13604;BME280;24578;48.264;11.436;2023-05-19T06:18:42;96491.28;;;14.09;100.00
13604;BME280;24578;48.264;11.436;2023-05-19T06:22:04;96482.22;;;15.47;100.00
13604;BME280;24578;48.264;11.436;2023-05-19T06:25:26;96477.50;;;16.96;100.00
13604;BME280;24578;48.264;11.436;2023-05-19T06:28:47;96473.72;;;17.09;100.00
13604;BME280;24578;48.264;11.436;2023-05-19T06:32:09;96473.94;;;17.61;97.47
13604;BME280;24578;48.264;11.436;2023-05-19T06:35:31;96467.88;;;19.54;83.68
13604;BME280;24578;48.264;11.436;2023-05-19T06:38:53;96463.94;;;20.24;68.12
13604;BME280;24578;48.264;11.436;2023-05-19T06:42:14;96464.16;;;20.79;61.01
13604;BME280;24578;48.264;11.436;2023-05-19T06:45:36;96455.00;;;21.69;54.81
13604;BME280;24578;48.264;11.436;2023-05-19T06:48:58;96462.59;;;21.41;51.99
13604;BME280;24578;48.264;11.436;2023-05-19T06:52:20;96476.31;;;18.88;60.88
13604;BME280;24578;48.264;11.436;2023-05-19T06:55:42;96479.25;;;17.88;67.92
13604;BME280;24578;48.264;11.436;2023-05-19T06:59:04;96489.66;;;17.43;70.94
13604;BME280;24578;48.264;11.436;2023-05-19T07:02:26;96485.34;;;16.96;73.68
13604;BME280;24578;48.264;11.436;2023-05-19T07:05:47;96484.34;;;17.07;72.52
13604;BME280;24578;48.264;11.436;2023-05-19T07:09:09;96480.84;;;16.79;72.03
13604;BME280;24578;48.264;11.436;2023-05-19T07:12:31;96484.88;;;16.63;75.22
13604;BME280;24578;48.264;11.436;2023-05-19T07:15:53;96490.22;;;16.34;73.79
13604;BME280;24578;48.264;11.436;2023-05-19T07:19:17;96481.72;;;16.22;75.03
13604;BME280;24578;48.264;11.436;2023-05-19T07:22:40;96483.63;;;16.10;74.98
13604;BME280;24578;48.264;11.436;2023-05-19T07:26:02;96490.50;;;15.81;77.35
13604;BME280;24578;48.264;11.436;2023-05-19T07:29:23;96497.44;;;15.42;78.55
13604;BME280;24578;48.264;11.436;2023-05-19T07:32:46;96492.00;;;15.04;81.17
13604;BME280;24578;48.264;11.436;2023-05-19T07:36:08;96500.50;;;14.86;81.45
13604;BME280;24578;48.264;11.436;2023-05-19T07:39:30;96493.75;;;14.62;82.18
13604;BME280;24578;48.264;11.436;2023-05-19T07:42:52;96498.81;;;14.54;82.01
13604;BME280;24578;48.264;11.436;2023-05-19T07:46:14;96493.97;;;14.50;82.32
13604;BME280;24578;48.264;11.436;2023-05-19T07:49:36;96493.19;;;14.80;81.43
13604;BME280;24578;48.264;11.436;2023-05-19T07:52:58;96488.88;;;14.48;84.67
13604;BME280;24578;48.264;11.436;2023-05-19T07:56:19;96499.63;;;14.34;85.72
13604;BME280;24578;48.264;11.436;2023-05-19T07:59:41;96500.06;;;14.18;86.76
13604;BME280;24578;48.264;11.436;2023-05-19T08:03:03;96501.00;;;13.95;86.45
13604;BME280;24578;48.264;11.436;2023-05-19T08:06:25;96494.03;;;13.63;88.58
13604;BME280;24578;48.264;11.436;2023-05-19T08:09:47;96491.00;;;13.58;88.83
13604;BME280;24578;48.264;11.436;2023-05-19T08:13:08;96483.88;;;14.14;86.79
13604;BME280;24578;48.264;11.436;2023-05-19T08:16:30;96489.66;;;14.39;82.52
13604;BME280;24578;48.264;11.436;2023-05-19T08:19:52;96483.56;;;14.71;80.71
13604;BME280;24578;48.264;11.436;2023-05-19T08:23:14;96484.13;;;14.74;81.89
13604;BME280;24578;48.264;11.436;2023-05-19T08:26:35;96498.13;;;14.83;81.48
13604;BME280;24578;48.264;11.436;2023-05-19T08:29:59;96489.41;;;15.04;79.89
13604;BME280;24578;48.264;11.436;2023-05-19T08:33:21;96477.69;;;14.88;79.49
13604;BME280;24578;48.264;11.436;2023-05-19T08:36:43;96488.78;;;14.59;81.12
13604;BME280;24578;48.264;11.436;2023-05-19T08:40:06;96488.22;;;14.04;84.71
13604;BME280;24578;48.264;11.436;2023-05-19T08:43:29;96489.31;;;14.01;85.24
13604;BME280;24578;48.264;11.436;2023-05-19T08:46:53;96478.44;;;13.96;87.36
13604;BME280;24578;48.264;11.436;2023-05-19T08:50:22;96482.13;;;13.93;88.12
13604;BME280;24578;48.264;11.436;2023-05-19T08:53:49;96490.59;;;13.95;86.50
13604;BME280;24578;48.264;11.436;2023-05-19T08:57:12;96478.50;;;14.06;83.73
13604;BME280;24578;48.264;11.436;2023-05-19T09:00:34;96477.88;;;14.13;85.87
13604;BME280;24578;48.264;11.436;2023-05-19T09:03:57;96474.69;;;14.31;83.80
13604;BME280;24578;48.264;11.436;2023-05-19T09:07:18;96476.84;;;14.05;82.47
13604;BME280;24578;48.264;11.436;2023-05-19T09:10:41;96479.94;;;13.98;85.38
13604;BME280;24578;48.264;11.436;2023-05-19T09:14:04;96474.94;;;14.28;84.03
13604;BME280;24578;48.264;11.436;2023-05-19T09:17:26;96471.81;;;14.65;80.32
13604;BME280;24578;48.264;11.436;2023-05-19T09:20:47;96474.91;;;14.49;80.87
13604;BME280;24578;48.264;11.436;2023-05-19T09:24:09;96470.44;;;14.30;83.86
13604;BME280;24578;48.264;11.436;2023-05-19T09:27:31;96473.88;;;14.09;84.25
13604;BME280;24578;48.264;11.436;2023-05-19T09:31:00;96472.59;;;13.82;85.27
13604;BME280;24578;48.264;11.436;2023-05-19T09:34:22;96475.16;;;13.61;86.92
13604;BME280;24578;48.264;11.436;2023-05-19T09:37:45;96468.81;;;13.75;88.48
13604;BME280;24578;48.264;11.436;2023-05-19T09:41:07;96480.50;;;14.02;86.17
13604;BME280;24578;48.264;11.436;2023-05-19T09:44:29;96472.53;;;14.67;81.25
13604;BME280;24578;48.264;11.436;2023-05-19T09:47:52;96457.09;;;15.36;76.07
13604;BME280;24578;48.264;11.436;2023-05-19T09:51:14;96459.56;;;15.57;72.97
13604;BME280;24578;48.264;11.436;2023-05-19T09:54:36;96452.44;;;15.69;71.77
13604;BME280;24578;48.264;11.436;2023-05-19T09:57:58;96447.66;;;15.84;70.88
13604;BME280;24578;48.264;11.436;2023-05-19T10:01:25;96458.66;;;15.88;69.39
13604;BME280;24578;48.264;11.436;2023-05-19T10:04:47;96442.16;;;15.58;70.64
13604;BME280;24578;48.264;11.436;2023-05-19T10:08:14;96452.44;;;15.30;72.43
13604;BME280;24578;48.264;11.436;2023-05-19T10:11:38;96450.34;;;15.14;74.97
13604;BME280;24578;48.264;11.436;2023-05-19T10:15:01;96447.78;;;14.83;77.11
13604;BME280;24578;48.264;11.436;2023-05-19T10:18:24;96461.41;;;14.65;78.91
13604;BME280;24578;48.264;11.436;2023-05-19T10:21:47;96450.28;;;14.84;77.51
13604;BME280;24578;48.264;11.436;2023-05-19T10:25:10;96452.75;;;14.86;76.87
13604;BME280;24578;48.264;11.436;2023-05-19T10:28:39;96447.25;;;14.58;78.29
13604;BME280;24578;48.264;11.436;2023-05-19T10:32:13;96450.16;;;14.34;79.98
13604;BME280;24578;48.264;11.436;2023-05-19T10:35:50;96462.75;;;14.07;82.05
13604;BME280;24578;48.264;11.436;2023-05-19T10:39:34;96462.69;;;13.97;82.65
13604;BME280;24578;48.264;11.436;2023-05-19T10:43:20;96458.25;;;14.09;81.94
13604;BME280;24578;48.264;11.436;2023-05-19T10:46:42;96466.75;;;13.90;82.34
13604;BME280;24578;48.264;11.436;2023-05-19T10:50:04;96461.97;;;13.95;83.34
13604;BME280;24578;48.264;11.436;2023-05-19T10:53:31;96467.31;;;13.94;84.69
13604;BME280;24578;48.264;11.436;2023-05-19T10:56:55;96459.50;;;13.94;84.15
13604;BME280;24578;48.264;11.436;2023-05-19T11:00:29;96455.19;;;14.04;84.18
13604;BME280;24578;48.264;11.436;2023-05-19T11:03:53;96451.59;;;14.16;84.68
13604;BME280;24578;48.264;11.436;2023-05-19T11:07:18;96442.31;;;14.24;83.83
13604;BME280;24578;48.264;11.436;2023-05-19T11:10:45;96450.75;;;14.16;84.20
13604;BME280;24578;48.264;11.436;2023-05-19T11:14:10;96454.38;;;14.25;85.02
13604;BME280;24578;48.264;11.436;2023-05-19T11:17:33;96445.47;;;14.58;82.53
13604;BME280;24578;48.264;11.436;2023-05-19T11:20:59;96430.63;;;15.31;79.23
13604;BME280;24578;48.264;11.436;2023-05-19T11:24:36;96438.75;;;15.87;74.71
13604;BME280;24578;48.264;11.436;2023-05-19T11:27:58;96434.09;;;16.38;70.83
13604;BME280;24578;48.264;11.436;2023-05-19T11:31:21;96430.81;;;16.73;66.67
13604;BME280;24578;48.264;11.436;2023-05-19T11:34:46;96431.53;;;17.22;63.16
13604;BME280;24578;48.264;11.436;2023-05-19T11:38:09;96427.97;;;16.95;63.01
13604;BME280;24578;48.264;11.436;2023-05-19T11:41:31;96436.31;;;16.70;64.76
13604;BME280;24578;48.264;11.436;2023-05-19T11:44:54;96429.16;;;16.72;64.44
13604;BME280;24578;48.264;11.436;2023-05-19T11:48:19;96427.25;;;17.02;62.18
13604;BME280;24578;48.264;11.436;2023-05-19T11:51:45;96417.31;;;17.06;61.65
13604;BME280;24578;48.264;11.436;2023-05-19T11:55:07;96429.06;;;17.20;60.48
13604;BME280;24578;48.264;11.436;2023-05-19T11:58:29;96433.84;;;17.25;58.53
13604;BME280;24578;48.264;11.436;2023-05-19T12:01:51;96442.09;;;17.48;58.62
13604;BME280;24578;48.264;11.436;2023-05-19T12:05:25;96441.81;;;16.39;63.82
13604;BME280;24578;48.264;11.436;2023-05-19T12:08:50;96436.53;;;15.72;67.79
13604;BME280;24578;48.264;11.436;2023-05-19T12:12:16;96442.31;;;15.46;69.57
13604;BME280;24578;48.264;11.436;2023-05-19T12:15:39;96432.16;;;15.63;73.05
13604;BME280;24578;48.264;11.436;2023-05-19T12:19:04;96428.44;;;15.95;69.21
13604;BME280;24578;48.264;11.436;2023-05-19T12:22:26;96429.13;;;16.44;68.48
13604;BME280;24578;48.264;11.436;2023-05-19T12:25:48;96424.47;;;17.04;64.57
13604;BME280;24578;48.264;11.436;2023-05-19T12:29:12;96426.19;;;17.41;62.10
13604;BME280;24578;48.264;11.436;2023-05-19T12:32:33;96419.72;;;17.17;62.19
13604;BME280;24578;48.264;11.436;2023-05-19T12:35:56;96425.28;;;16.77;63.41
13604;BME280;24578;48.264;11.436;2023-05-19T12:39:18;96418.34;;;16.85;63.87
13604;BME280;24578;48.264;11.436;2023-05-19T12:42:43;96415.47;;;17.34;62.93
13604;BME280;24578;48.264;11.436;2023-05-19T12:46:09;96422.44;;;17.44;59.96
13604;BME280;24578;48.264;11.436;2023-05-19T12:49:32;96413.81;;;17.52;60.06
13604;BME280;24578;48.264;11.436;2023-05-19T12:52:54;96421.16;;;17.48;58.43
13604;BME280;24578;48.264;11.436;2023-05-19T12:56:15;96421.53;;;16.89;61.14
13604;BME280;24578;48.264;11.436;2023-05-19T12:59:37;96408.06;;;17.30;61.15
13604;BME280;24578;48.264;11.436;2023-05-19T13:03:05;96423.69;;;17.76;57.66
13604;BME280;24578;48.264;11.436;2023-05-19T13:06:27;96416.94;;;16.91;61.72
13604;BME280;24578;48.264;11.436;2023-05-19T13:09:49;96405.72;;;17.81;59.35
13604;BME280;24578;48.264;11.436;2023-05-19T13:13:11;96409.13;;;18.52;55.06
13604;BME280;24578;48.264;11.436;2023-05-19T13:16:33;96395.44;;;18.06;56.18
13604;BME280;24578;48.264;11.436;2023-05-19T13:19:55;96397.59;;;18.37;55.11
13604;BME280;24578;48.264;11.436;2023-05-19T13:23:17;96395.09;;;19.05;54.03
13604;BME280;24578;48.264;11.436;2023-05-19T13:26:39;96378.94;;;19.92;50.45
13604;BME280;24578;48.264;11.436;2023-05-19T13:30:03;96373.72;;;20.88;48.57
13604;BME280;24578;48.264;11.436;2023-05-19T13:33:24;96370.81;;;22.29;43.42
13604;BME280;24578;48.264;11.436;2023-05-19T13:36:46;96366.84;;;21.80;43.58
13604;BME280;24578;48.264;11.436;2023-05-19T13:40:09;96362.06;;;21.60;44.68
13604;BME280;24578;48.264;11.436;2023-05-19T13:43:31;96337.53;;;22.58;42.97
13604;BME280;24578;48.264;11.436;2023-05-19T13:46:53;96341.81;;;23.54;40.08
13604;BME280;24578;48.264;11.436;2023-05-19T13:50:15;96342.03;;;23.81;39.99
13604;BME280;24578;48.264;11.436;2023-05-19T13:53:37;96341.56;;;23.78;39.24
13604;BME280;24578;48.264;11.436;2023-05-19T13:56:59;96345.34;;;23.03;40.21
13604;BME280;24578;48.264;11.436;2023-05-19T14:00:21;96340.09;;;22.66;42.07
13604;BME280;24578;48.264;11.436;2023-05-19T14:03:43;96347.91;;;22.30;42.37
13604;BME280;24578;48.264;11.436;2023-05-19T14:07:06;96345.13;;;21.63;44.34
13604;BME280;24578;48.264;11.436;2023-05-19T14:10:28;96329.25;;;21.02;45.59
13604;BME280;24578;48.264;11.436;2023-05-19T14:13:49;96327.19;;;20.89;48.05
13604;BME280;24578;48.264;11.436;2023-05-19T14:17:11;96331.25;;;21.23;47.13
13604;BME280;24578;48.264;11.436;2023-05-19T14:20:33;96334.16;;;20.73;48.66
13604;BME280;24578;48.264;11.436;2023-05-19T14:23:55;96323.41;;;20.12;50.66
13604;BME280;24578;48.264;11.436;2023-05-19T14:27:16;96321.31;;;19.74;52.59
13604;BME280;24578;48.264;11.436;2023-05-19T14:30:38;96319.88;;;19.38;55.35
13604;BME280;24578;48.264;11.436;2023-05-19T14:34:00;96321.94;;;18.93;56.42
13604;BME280;24578;48.264;11.436;2023-05-19T14:37:22;96317.81;;;18.31;60.13
13604;BME280;24578;48.264;11.436;2023-05-19T14:40:44;96321.94;;;18.07;61.70
13604;BME280;24578;48.264;11.436;2023-05-19T14:44:06;96323.75;;;17.80;63.68
13604;BME280;24578;48.264;11.436;2023-05-19T14:47:28;96328.50;;;17.85;63.52
13604;BME280;24578;48.264;11.436;2023-05-19T14:50:50;96327.31;;;17.98;63.63
13604;BME280;24578;48.264;11.436;2023-05-19T14:54:11;96325.13;;;17.93;65.12
13604;BME280;24578;48.264;11.436;2023-05-19T14:57:33;96313.47;;;18.14;64.26
13604;BME280;24578;48.264;11.436;2023-05-19T15:00:58;96325.44;;;17.90;65.64
13604;BME280;24578;48.264;11.436;2023-05-19T15:04:20;96319.00;;;18.02;63.87
13604;BME280;24578;48.264;11.436;2023-05-19T15:07:41;96329.81;;;17.81;65.88
13604;BME280;24578;48.264;11.436;2023-05-19T15:11:03;96329.66;;;17.83;66.23
13604;BME280;24578;48.264;11.436;2023-05-19T15:14:25;96330.16;;;17.86;66.88
13604;BME280;24578;48.264;11.436;2023-05-19T15:17:47;96325.44;;;17.90;66.13
13604;BME280;24578;48.264;11.436;2023-05-19T15:21:09;96321.97;;;17.81;67.22
13604;BME280;24578;48.264;11.436;2023-05-19T15:24:31;96318.78;;;17.95;66.98
13604;BME280;24578;48.264;11.436;2023-05-19T15:27:52;96312.56;;;17.96;67.85
13604;BME280;24578;48.264;11.436;2023-05-19T15:31:14;96290.69;;;18.06;66.17
13604;BME280;24578;48.264;11.436;2023-05-19T15:34:36;96297.88;;;18.04;65.87
13604;BME280;24578;48.264;11.436;2023-05-19T15:37:58;96288.16;;;18.22;66.19
13604;BME280;24578;48.264;11.436;2023-05-19T15:41:25;96290.47;;;18.25;64.82
13604;BME280;24578;48.264;11.436;2023-05-19T15:44:47;96296.97;;;18.21;66.30
13604;BME280;24578;48.264;11.436;2023-05-19T15:48:09;96290.72;;;18.14;67.30
13604;BME280;24578;48.264;11.436;2023-05-19T15:51:30;96295.53;;;18.27;66.97
13604;BME280;24578;48.264;11.436;2023-05-19T15:54:52;96292.53;;;18.14;67.13
13604;BME280;24578;48.264;11.436;2023-05-19T15:58:15;96283.66;;;18.06;68.96
13604;BME280;24578;48.264;11.436;2023-05-19T16:01:37;96284.16;;;17.84;68.96
13604;BME280;24578;48.264;11.436;2023-05-19T16:04:59;96283.66;;;17.80;70.11
13604;BME280;24578;48.264;11.436;2023-05-19T16:08:21;96286.59;;;17.77;68.94
13604;BME280;24578;48.264;11.436;2023-05-19T16:11:42;96275.63;;;17.73;69.98
13604;BME280;24578;48.264;11.436;2023-05-19T16:15:04;96274.41;;;17.94;70.19
13604;BME280;24578;48.264;11.436;2023-05-19T16:18:26;96261.22;;;18.04;69.59
13604;BME280;24578;48.264;11.436;2023-05-19T16:21:49;96267.38;;;17.94;67.38
13604;BME280;24578;48.264;11.436;2023-05-19T16:25:11;96258.78;;;17.84;69.11
13604;BME280;24578;48.264;11.436;2023-05-19T16:28:33;96254.97;;;17.70;69.86
13604;BME280;24578;48.264;11.436;2023-05-19T16:31:54;96249.38;;;17.65;71.85
13604;BME280;24578;48.264;11.436;2023-05-19T16:35:16;96265.84;;;17.57;73.43
13604;BME280;24578;48.264;11.436;2023-05-19T16:38:38;96259.81;;;17.57;72.89
13604;BME280;24578;48.264;11.436;2023-05-19T16:42:00;96261.00;;;17.62;73.31
13604;BME280;24578;48.264;11.436;2023-05-19T16:45:22;96252.88;;;17.74;71.34
13604;BME280;24578;48.264;11.436;2023-05-19T16:48:43;96247.03;;;17.80;72.03
13604;BME280;24578;48.264;11.436;2023-05-19T16:52:06;96243.06;;;17.76;71.14
13604;BME280;24578;48.264;11.436;2023-05-19T16:55:28;96237.94;;;17.66;72.64
13604;BME280;24578;48.264;11.436;2023-05-19T16:58:50;96241.69;;;17.37;74.76
13604;BME280;24578;48.264;11.436;2023-05-19T17:02:13;96237.25;;;17.11;76.38
13604;BME280;24578;48.264;11.436;2023-05-19T17:05:35;96242.75;;;16.90;78.28
13604;BME280;24578;48.264;11.436;2023-05-19T17:08:58;96234.63;;;16.93;79.78
13604;BME280;24578;48.264;11.436;2023-05-19T17:12:20;96232.72;;;16.95;79.85
13604;BME280;24578;48.264;11.436;2023-05-19T17:15:42;96226.50;;;16.96;80.28
13604;BME280;24578;48.264;11.436;2023-05-19T17:19:03;96226.59;;;17.04;80.47
13604;BME280;24578;48.264;11.436;2023-05-19T17:22:25;96240.31;;;17.07;79.55
13604;BME280;24578;48.264;11.436;2023-05-19T17:25:47;96234.44;;;17.04;80.29
13604;BME280;24578;48.264;11.436;2023-05-19T17:29:09;96230.94;;;16.96;80.62
13604;BME280;24578;48.264;11.436;2023-05-19T17:32:30;96233.59;;;16.86;82.44
13604;BME280;24578;48.264;11.436;2023-05-19T17:35:56;96229.47;;;16.83;82.89
13604;BME280;24578;48.264;11.436;2023-05-19T17:39:17;96243.66;;;16.81;82.82
13604;BME280;24578;48.264;11.436;2023-05-19T17:42:40;96241.28;;;16.69;84.67
13604;BME280;24578;48.264;11.436;2023-05-19T17:46:02;96237.47;;;16.64;85.39
13604;BME280;24578;48.264;11.436;2023-05-19T17:49:24;96239.47;;;16.52;85.52
13604;BME280;24578;48.264;11.436;2023-05-19T17:52:46;96233.06;;;16.46;87.44
13604;BME280;24578;48.264;11.436;2023-05-19T17:56:10;96232.69;;;16.41;89.46
13604;BME280;24578;48.264;11.436;2023-05-19T17:59:33;96233.41;;;16.33;90.58
13604;BME280;24578;48.264;11.436;2023-05-19T18:02:55;96243.19;;;16.31;91.46